This is the latest recevied weather packets stored in our database for station/object K3BAK-13. If no packets are shown the sender has not sent any weather packets the latest 10 day(s).
| Time | Temp. | Humidity | Pressure | Rain* | Wind** | Luminosity | Snow |
|---|---|---|---|---|---|---|---|
| 1777680959 | 6.11° C | 92% | 1013.7 hPa | 0 mm | - | - | - |
| 1777680361 | 6.11° C | 91% | 1013.3 hPa | 0.51 mm | - | - | - |
| 1777680059 | 6.67° C | 91% | 1013.1 hPa | 1.27 mm | - | - | - |
| 1777678562 | 6.67° C | 90% | 1013.1 hPa | 1.27 mm | - | - | - |
| 1777677363 | 6.67° C | 87% | 1012.4 hPa | 1.27 mm | - | - | - |
| 1777676463 | 9.44° C | 83% | 1012.3 hPa | 0 mm | - | - | - |
| 1777675862 | 9.44° C | 83% | 1012 hPa | 0 mm | - | - | - |
| 1777675261 | 9.44° C | 84% | 1012 hPa | 0 mm | - | - | - |
| 1777672260 | 8.89° C | 87% | 1012.1 hPa | 0.51 mm | - | - | - |
| 1777671068 | 8.89° C | 87% | 1012.1 hPa | 0.51 mm | - | - | - |
| 1777670459 | 8.33° C | 88% | 1012.4 hPa | 0.51 mm | - | - | - |
| 1777669559 | 8.33° C | 88% | 1012.5 hPa | 0.51 mm | - | - | - |
| 1777667159 | 8.89° C | 83% | 1012.3 hPa | 0.25 mm | - | - | - |
| 1777666263 | 8.89° C | 82% | 1012.1 hPa | 0.51 mm | - | - | - |
| 1777664159 | 9.44° C | 77% | 1012 hPa | 0.25 mm | - | - | - |
| 1777663858 | 9.44° C | 76% | 1012.1 hPa | 0.25 mm | - | - | - |
| 1777662659 | 10.56° C | 72% | 1012.2 hPa | 0 mm | - | - | - |
| 1777656359 | 10.56° C | 73% | 1012.4 hPa | 0.25 mm | - | - | - |
| 1777655769 | 11.11° C | 68% | 1012.2 hPa | 0 mm | - | - | - |
| 1777655462 | 11.11° C | 66% | 1012.3 hPa | 0 mm | - | - | - |
| 1777651559 | 12.22° C | 59% | 1012.6 hPa | 0 mm | - | - | - |
| 1777646459 | 10.56° C | 67% | 1013.4 hPa | 0 mm | - | - | - |
| 1777645562 | 10.56° C | 67% | 1013.6 hPa | 0 mm | - | - | - |
| 1777644064 | 10.56° C | 71% | 1013.4 hPa | 0 mm | - | - | - |
| 1777642562 | 8.89° C | 79% | 1013.6 hPa | 0 mm | - | - | - |
* Rain latest hour (hover to see other rain measurements)
** Current wind speed in m/s (hover to see current wind gust speed)